Time;durP1;ratioP1;P1;durP2;ratioP2;P2;SDS_P1;SDS_P2;PMS_P1;PMS_P2;Temp;Humidity;BMP_temperature;BMP_pressure;BME280_temperature;BME280_humidity;BME280_pressure;Samples;Min_cycle;Max_cycle;Signal;HPM_P1;HPM_P2
2023/04/30 00:02:11;;;;;;;17.63;10.83;;;8.30;99.90;;;;;;5033437;28;20309;-80
2023/04/30 00:04:39;;;;;;;21.17;12.83;;;8.20;99.90;;;;;;5032568;28;20898;-80
2023/04/30 00:07:06;;;;;;;18.47;11.50;;;8.30;99.90;;;;;;5033557;28;20207;-79
2023/04/30 00:09:33;;;;;;;17.60;11.93;;;8.20;99.90;;;;;;5032659;28;20309;-79
2023/04/30 00:12:00;;;;;;;13.23;11.30;;;8.20;99.90;;;;;;5032997;28;20215;-79
2023/04/30 00:14:26;;;;;;;18.30;11.70;;;8.20;99.90;;;;;;5032680;28;20360;-79
2023/04/30 00:16:53;;;;;;;16.63;11.40;;;8.20;99.90;;;;;;5032294;28;20210;-80
2023/04/30 00:19:20;;;;;;;16.33;12.07;;;8.20;99.90;;;;;;5032811;28;20290;-80
2023/04/30 00:21:48;;;;;;;20.97;12.43;;;8.20;99.90;;;;;;5032801;28;20231;-79
2023/04/30 00:24:15;;;;;;;15.53;10.07;;;8.20;99.90;;;;;;5039483;28;20205;-80
2023/04/30 00:26:42;;;;;;;18.33;11.50;;;8.20;99.90;;;;;;5053371;28;20204;-79
2023/04/30 00:29:09;;;;;;;18.00;11.80;;;8.20;99.90;;;;;;5046762;28;20207;-80
2023/04/30 00:31:36;;;;;;;12.30;9.93;;;8.20;99.90;;;;;;5032511;28;20260;-80
2023/04/30 00:34:03;;;;;;;14.17;10.43;;;8.10;99.90;;;;;;5032134;28;20202;-80
2023/04/30 00:36:30;;;;;;;13.93;10.07;;;8.10;99.90;;;;;;5032636;28;20198;-80
2023/04/30 00:38:59;;;;;;;16.40;11.20;;;8.10;99.90;;;;;;5032362;28;20217;-79
2023/04/30 00:41:26;;;;;;;13.70;9.80;;;8.10;99.90;;;;;;5038677;28;20288;-80
2023/04/30 00:43:52;;;;;;;17.77;10.33;;;8.10;99.90;;;;;;5052347;28;20285;-80
2023/04/30 00:46:19;;;;;;;11.17;9.27;;;8.00;99.90;;;;;;5051514;28;20755;-80
2023/04/30 00:48:47;;;;;;;13.37;9.27;;;8.00;99.90;;;;;;5035902;28;20353;-80
2023/04/30 00:51:15;;;;;;;16.90;10.63;;;8.00;99.90;;;;;;5032462;28;20226;-80
2023/04/30 00:53:42;;;;;;;13.67;9.73;;;7.90;99.90;;;;;;5031911;28;20230;-80
2023/04/30 00:56:11;;;;;;;12.47;9.00;;;7.90;99.90;;;;;;5032448;28;20290;-80
2023/04/30 00:58:37;;;;;;;14.87;9.83;;;7.90;99.90;;;;;;5048693;28;20242;-81
2023/04/30 01:01:05;;;;;;;13.67;9.90;;;7.90;99.90;;;;;;5050444;28;20203;-79
2023/04/30 01:03:34;;;;;;;14.53;10.23;;;7.90;99.90;;;;;;5052066;28;20224;-80
2023/04/30 01:06:02;;;;;;;14.97;10.73;;;7.90;99.90;;;;;;5051708;28;20673;-80
2023/04/30 01:08:29;;;;;;;15.10;10.57;;;7.80;99.90;;;;;;5037656;28;20210;-79
2023/04/30 01:11:06;;;;;;;14.40;10.40;;;7.80;99.90;;;;;;5014324;28;20224;-80
2023/04/30 01:13:40;;;;;;;13.57;10.57;;;7.80;99.90;;;;;;5039123;28;20217;-80
2023/04/30 01:16:14;;;;;;;15.17;11.33;;;7.70;99.90;;;;;;5052188;28;20182;-80
2023/04/30 01:18:48;;;;;;;14.13;10.63;;;7.70;99.90;;;;;;5052095;28;20204;-79
2023/04/30 01:21:18;;;;;;;13.07;10.07;;;7.70;99.90;;;;;;5039374;28;20194;-80
2023/04/30 01:24:03;;;;;;;13.77;10.37;;;7.60;99.90;;;;;;5031830;28;20234;-79
2023/04/30 01:26:45;;;;;;;15.00;10.83;;;7.60;99.90;;;;;;5032321;28;20190;-79
2023/04/30 01:29:16;;;;;;;15.20;11.07;;;7.60;99.90;;;;;;5039141;28;20312;-80
2023/04/30 01:31:44;;;;;;;14.10;9.50;;;7.60;99.90;;;;;;5051865;28;20211;-79
2023/04/30 01:34:11;;;;;;;14.83;10.10;;;7.60;99.90;;;;;;5050503;28;20541;-80
2023/04/30 01:36:50;;;;;;;14.60;9.83;;;7.50;99.90;;;;;;5033331;28;20214;-80
2023/04/30 01:39:41;;;;;;;11.27;9.87;;;7.50;99.90;;;;;;5031942;28;20532;-78
2023/04/30 01:42:22;;;;;;;12.97;9.23;;;7.50;99.90;;;;;;5018738;28;20207;-80
2023/04/30 01:45:13;;;;;;;13.87;8.73;;;7.50;99.90;;;;;;5031601;28;20230;-80
2023/04/30 01:47:46;;;;;;;10.80;8.00;;;7.50;99.90;;;;;;5035289;28;20659;-80
2023/04/30 01:50:22;;;;;;;11.17;8.47;;;7.50;99.90;;;;;;5050913;28;20211;-79
2023/04/30 01:52:53;;;;;;;13.43;8.80;;;7.50;99.90;;;;;;5045063;28;20257;-80
2023/04/30 01:55:24;;;;;;;17.40;10.43;;;7.50;99.90;;;;;;5031155;28;20201;-80
2023/04/30 01:57:57;;;;;;;10.17;8.80;;;7.50;99.90;;;;;;5031962;28;20187;-80
2023/04/30 02:00:26;;;;;;;13.00;8.83;;;7.50;99.90;;;;;;5031143;28;20202;-81
2023/04/30 02:02:53;;;;;;;14.57;9.50;;;7.50;99.90;;;;;;5031088;28;20225;-80
2023/04/30 02:05:20;;;;;;;12.07;9.23;;;7.50;99.90;;;;;;5031763;28;20206;-79
2023/04/30 02:07:50;;;;;;;15.50;9.33;;;7.50;99.90;;;;;;5031043;28;20285;-80
2023/04/30 02:10:18;;;;;;;13.07;9.70;;;7.40;99.90;;;;;;5031246;28;20199;-80
2023/04/30 02:12:45;;;;;;;13.90;9.30;;;7.50;99.90;;;;;;5031242;28;20507;-80
2023/04/30 02:15:12;;;;;;;10.13;8.90;;;7.50;99.90;;;;;;5031751;28;20648;-80
2023/04/30 02:17:41;;;;;;;11.37;8.57;;;7.40;99.90;;;;;;5030844;28;20599;-79
2023/04/30 02:20:09;;;;;;;12.63;9.00;;;7.40;99.90;;;;;;5031443;28;20294;-78
2023/04/30 02:22:36;;;;;;;14.20;9.60;;;7.40;99.90;;;;;;5031208;28;20264;-79
2023/04/30 02:25:03;;;;;;;10.97;8.70;;;7.40;99.90;;;;;;5032562;28;20191;-79
2023/04/30 02:27:32;;;;;;;8.97;7.60;;;7.40;99.90;;;;;;5035378;28;20230;-80
2023/04/30 02:29:59;;;;;;;14.13;9.33;;;7.40;99.90;;;;;;5034590;28;20302;-79
2023/04/30 02:32:26;;;;;;;13.20;8.53;;;7.30;99.90;;;;;;5034307;28;20222;-79
2023/04/30 02:34:54;;;;;;;11.63;9.47;;;7.30;99.90;;;;;;5035214;28;20209;-78
2023/04/30 02:37:21;;;;;;;10.20;8.13;;;7.30;99.90;;;;;;5034204;28;20215;-78
2023/04/30 02:39:48;;;;;;;12.07;8.60;;;7.30;99.90;;;;;;5034815;28;20204;-76
2023/04/30 02:42:15;;;;;;;10.60;8.50;;;7.30;99.90;;;;;;5034943;28;20513;-79
2023/04/30 02:44:42;;;;;;;12.93;8.67;;;7.30;99.90;;;;;;5034229;28;20207;-78
2023/04/30 02:47:09;;;;;;;12.93;9.40;;;7.30;99.90;;;;;;5034383;28;20365;-77
2023/04/30 02:49:36;;;;;;;11.83;8.77;;;7.20;99.90;;;;;;5034598;28;20203;-77
2023/04/30 02:52:04;;;;;;;14.17;9.20;;;7.20;99.90;;;;;;5034109;28;20228;-78
2023/04/30 02:54:31;;;;;;;10.80;9.33;;;7.20;99.90;;;;;;5034148;28;20234;-78
2023/04/30 02:56:58;;;;;;;12.03;9.07;;;7.20;99.90;;;;;;5038795;28;20432;-77
2023/04/30 02:59:26;;;;;;;11.93;8.27;;;7.20;99.90;;;;;;5053597;28;20194;-78
2023/04/30 03:01:52;;;;;;;10.47;7.63;;;7.20;99.90;;;;;;5054389;28;20245;-78
2023/04/30 03:04:19;;;;;;;10.70;9.13;;;7.20;99.90;;;;;;5034490;28;20206;-76
2023/04/30 03:06:46;;;;;;;8.80;7.50;;;7.20;99.90;;;;;;5033455;28;20202;-76
2023/04/30 03:09:15;;;;;;;11.03;9.37;;;7.10;99.90;;;;;;5034185;28;20289;-79
2023/04/30 03:11:41;;;;;;;9.40;7.30;;;7.10;99.90;;;;;;5034047;28;20482;-80
2023/04/30 03:14:08;;;;;;;9.60;7.90;;;7.10;99.90;;;;;;5042441;28;20210;-79
2023/04/30 03:16:35;;;;;;;8.80;7.43;;;7.10;99.90;;;;;;5054248;28;20202;-78
2023/04/30 03:19:02;;;;;;;9.30;7.57;;;7.10;99.90;;;;;;5053976;28;20221;-77
2023/04/30 03:21:29;;;;;;;9.23;7.53;;;7.10;99.90;;;;;;5051221;28;20198;-78
2023/04/30 03:23:56;;;;;;;12.20;8.37;;;7.10;99.90;;;;;;5034153;28;20607;-80
2023/04/30 03:26:24;;;;;;;9.47;8.00;;;7.10;99.90;;;;;;5033905;28;20202;-78
2023/04/30 03:28:53;;;;;;;10.73;8.23;;;7.00;99.90;;;;;;5033672;28;20198;-78
2023/04/30 03:31:20;;;;;;;8.27;7.37;;;7.00;99.90;;;;;;5033661;28;20265;-79
2023/04/30 03:33:47;;;;;;;13.30;9.83;;;7.00;99.90;;;;;;5033161;28;20203;-78
2023/04/30 03:36:14;;;;;;;10.53;8.30;;;6.90;99.90;;;;;;5032995;28;20500;-78
2023/04/30 03:38:41;;;;;;;10.60;8.10;;;6.90;99.90;;;;;;5033399;28;20217;-79
2023/04/30 03:41:08;;;;;;;9.80;8.27;;;6.90;99.90;;;;;;5032709;28;20240;-78
2023/04/30 03:43:36;;;;;;;9.63;8.03;;;6.90;99.90;;;;;;5033926;28;20199;-80
2023/04/30 03:46:03;;;;;;;9.63;7.93;;;6.90;99.90;;;;;;5033837;28;20213;-80
2023/04/30 03:48:30;;;;;;;10.23;7.93;;;6.90;99.90;;;;;;5033550;28;20194;-79
2023/04/30 03:50:57;;;;;;;11.03;8.27;;;6.90;99.90;;;;;;5033848;28;20207;-80
2023/04/30 03:53:25;;;;;;;9.23;7.50;;;6.90;99.90;;;;;;5034352;28;20288;-79
2023/04/30 03:55:53;;;;;;;12.23;8.23;;;6.90;99.90;;;;;;5053146;28;20198;-80
2023/04/30 03:58:20;;;;;;;9.80;7.57;;;6.80;99.90;;;;;;5053467;28;20265;-80
2023/04/30 04:00:48;;;;;;;10.63;8.17;;;6.70;99.90;;;;;;5040459;28;20206;-79
2023/04/30 04:03:16;;;;;;;12.00;8.40;;;6.70;99.90;;;;;;5032941;28;20214;-79
2023/04/30 04:05:43;;;;;;;8.27;7.20;;;6.70;99.90;;;;;;5033954;28;20645;-79
2023/04/30 04:08:10;;;;;;;13.40;9.67;;;6.70;99.90;;;;;;5033670;28;20409;-80
2023/04/30 04:10:38;;;;;;;9.03;7.77;;;6.70;99.90;;;;;;5044598;28;20212;-80
2023/04/30 04:13:05;;;;;;;9.40;8.27;;;6.70;99.90;;;;;;5053249;28;20784;-79
2023/04/30 04:15:32;;;;;;;13.07;10.50;;;6.70;99.90;;;;;;5053510;28;20197;-80
2023/04/30 04:18:00;;;;;;;12.27;9.47;;;6.70;99.90;;;;;;5051846;28;20298;-80
2023/04/30 04:20:28;;;;;;;11.70;9.00;;;6.70;99.90;;;;;;5053366;28;20665;-79
2023/04/30 04:22:55;;;;;;;11.00;8.90;;;6.70;99.90;;;;;;5052793;28;20201;-79
2023/04/30 04:25:24;;;;;;;10.53;8.27;;;6.60;99.90;;;;;;5052982;28;20198;-79
2023/04/30 04:27:52;;;;;;;10.10;8.73;;;6.60;99.90;;;;;;5033123;28;20237;-78
2023/04/30 04:30:18;;;;;;;10.23;7.93;;;6.70;99.90;;;;;;5032977;28;20199;-80
2023/04/30 04:32:49;;;;;;;12.10;9.47;;;6.70;99.90;;;;;;5033312;28;20249;-80
2023/04/30 04:35:18;;;;;;;14.33;9.63;;;6.70;99.90;;;;;;5033382;28;20308;-79
2023/04/30 04:37:45;;;;;;;11.27;9.47;;;6.70;99.90;;;;;;5032137;28;20200;-79
2023/04/30 04:40:12;;;;;;;12.80;9.93;;;6.70;99.90;;;;;;5033264;28;20202;-80
2023/04/30 04:42:39;;;;;;;13.73;9.90;;;6.70;99.90;;;;;;5032759;28;20736;-80
2023/04/30 04:45:08;;;;;;;11.17;9.30;;;6.70;99.90;;;;;;5032404;28;20240;-79
2023/04/30 04:47:35;;;;;;;11.83;9.37;;;6.70;99.90;;;;;;5031161;28;20351;-79
2023/04/30 04:50:02;;;;;;;12.77;10.27;;;6.70;99.90;;;;;;5032302;28;20282;-80
2023/04/30 04:52:30;;;;;;;12.33;9.67;;;6.70;99.90;;;;;;5031251;28;20226;-79
2023/04/30 04:54:57;;;;;;;13.50;10.17;;;6.70;99.90;;;;;;5032387;28;20478;-79
2023/04/30 04:57:24;;;;;;;12.70;9.67;;;6.70;99.90;;;;;;5031998;28;20278;-79
2023/04/30 04:59:51;;;;;;;12.13;9.80;;;6.70;99.90;;;;;;5031404;28;20203;-79
2023/04/30 05:02:18;;;;;;;12.87;9.90;;;6.80;99.90;;;;;;5031888;28;20222;-79
2023/04/30 05:04:49;;;;;;;14.30;11.13;;;6.80;99.90;;;;;;5031878;28;20226;-78
2023/04/30 05:07:16;;;;;;;14.03;10.57;;;6.80;99.90;;;;;;5050295;28;20202;-79
2023/04/30 05:09:44;;;;;;;14.43;10.50;;;6.80;99.90;;;;;;5041673;28;20214;-78
2023/04/30 05:12:11;;;;;;;13.40;11.00;;;6.90;99.90;;;;;;5031476;28;20549;-77
2023/04/30 05:14:38;;;;;;;13.77;10.13;;;6.90;99.90;;;;;;5031690;28;20203;-78
2023/04/30 05:17:05;;;;;;;17.53;11.83;;;6.90;99.90;;;;;;5032141;28;20293;-78
2023/04/30 05:19:32;;;;;;;14.87;12.50;;;7.00;99.90;;;;;;5031400;28;20229;-80
2023/04/30 05:22:00;;;;;;;19.37;12.53;;;7.00;99.90;;;;;;5032611;28;20570;-85
2023/04/30 05:24:27;;;;;;;15.70;12.43;;;7.00;99.90;;;;;;5032540;28;20203;-79
2023/04/30 05:26:55;;;;;;;19.13;14.27;;;7.10;99.90;;;;;;5037738;28;20194;-80
2023/04/30 05:29:22;;;;;;;16.73;12.83;;;7.10;99.90;;;;;;5052005;28;20225;-80
2023/04/30 05:31:49;;;;;;;16.77;13.40;;;7.20;99.90;;;;;;5050897;28;20274;-80
2023/04/30 05:34:16;;;;;;;18.43;14.70;;;7.20;99.90;;;;;;5051698;28;20202;-81
2023/04/30 05:36:43;;;;;;;20.90;15.43;;;7.30;99.90;;;;;;5052410;28;20198;-81
2023/04/30 05:39:10;;;;;;;19.30;15.17;;;7.30;99.90;;;;;;5050384;28;20214;-81
2023/04/30 05:41:37;;;;;;;21.43;16.60;;;7.40;99.90;;;;;;5050048;28;20212;-81
2023/04/30 05:44:05;;;;;;;19.90;15.37;;;7.50;99.90;;;;;;5051961;28;20798;-80
2023/04/30 05:46:34;;;;;;;25.93;18.37;;;7.50;99.90;;;;;;5052046;28;20202;-80
2023/04/30 05:49:01;;;;;;;24.43;17.57;;;7.60;99.90;;;;;;5050016;28;20625;-80
2023/04/30 05:51:28;;;;;;;20.90;16.37;;;7.70;99.90;;;;;;5051897;28;20194;-81
2023/04/30 05:53:56;;;;;;;23.30;17.47;;;7.80;99.90;;;;;;5051527;28;20226;-81
2023/04/30 05:56:24;;;;;;;25.17;17.40;;;7.80;99.90;;;;;;5044489;28;20202;-79
2023/04/30 05:58:51;;;;;;;23.67;18.77;;;7.90;99.90;;;;;;5033807;28;20581;-80
2023/04/30 06:01:19;;;;;;;26.90;19.50;;;8.10;99.90;;;;;;5035598;28;20712;-81
2023/04/30 06:03:47;;;;;;;29.13;22.10;;;8.20;99.90;;;;;;5036148;28;20194;-80
2023/04/30 06:06:13;;;;;;;28.57;22.10;;;8.40;99.90;;;;;;5049053;28;20209;-78
2023/04/30 06:08:43;;;;;;;28.77;20.67;;;8.60;99.90;;;;;;5044203;28;20210;-76
2023/04/30 06:11:11;;;;;;;24.63;19.53;;;8.80;99.90;;;;;;5035334;28;20249;-76
2023/04/30 06:13:38;;;;;;;21.30;17.27;;;9.10;99.90;;;;;;5035012;28;20221;-77
2023/04/30 06:16:05;;;;;;;22.47;16.93;;;9.30;99.90;;;;;;5033797;28;20194;-77
2023/04/30 06:18:33;;;;;;;22.13;16.70;;;9.60;99.90;;;;;;5035350;28;20206;-78
2023/04/30 06:21:00;;;;;;;19.00;16.00;;;9.80;99.90;;;;;;5035273;28;20207;-76
2023/04/30 06:23:27;;;;;;;21.23;15.80;;;10.10;99.90;;;;;;5034667;28;20217;-76
2023/04/30 06:25:54;;;;;;;20.57;15.20;;;10.50;99.90;;;;;;5034817;28;20298;-76
2023/04/30 06:28:21;;;;;;;21.10;15.80;;;10.70;99.90;;;;;;5034572;28;20704;-75
2023/04/30 06:30:48;;;;;;;19.63;14.40;;;10.90;99.90;;;;;;5034787;28;20202;-76
2023/04/30 06:33:15;;;;;;;14.30;11.73;;;11.10;99.90;;;;;;5034873;28;20215;-75
2023/04/30 06:35:43;;;;;;;18.03;11.73;;;11.40;99.90;;;;;;5035121;28;20237;-78
2023/04/30 06:38:10;;;;;;;12.77;10.73;;;11.70;99.90;;;;;;5034250;28;20221;-77
2023/04/30 06:40:37;;;;;;;12.13;9.93;;;12.10;99.90;;;;;;5034347;28;20220;-76
2023/04/30 06:43:03;;;;;;;11.87;9.87;;;12.50;99.90;;;;;;5035392;28;20204;-77
2023/04/30 06:45:30;;;;;;;12.03;9.67;;;12.80;99.90;;;;;;5034502;28;20297;-78
2023/04/30 06:47:58;;;;;;;9.93;8.53;;;13.00;99.90;;;;;;5035439;28;20201;-76
2023/04/30 06:50:25;;;;;;;9.43;8.20;;;13.20;99.90;;;;;;5054721;28;20598;-80
2023/04/30 06:52:53;;;;;;;8.30;7.20;;;13.50;99.90;;;;;;5053173;28;20234;-81
2023/04/30 06:55:20;;;;;;;11.07;7.03;;;13.80;99.90;;;;;;5035322;28;20211;-80
2023/04/30 06:57:47;;;;;;;7.75;6.95;;;14.00;99.90;;;;;;5043180;28;20533;-80
2023/04/30 07:00:15;;;;;;;10.13;7.47;;;14.30;99.90;;;;;;5034854;28;20206;-79
2023/04/30 07:02:42;;;;;;;11.32;7.95;;;14.50;99.90;;;;;;5034704;28;20272;-78
2023/04/30 07:05:10;;;;;;;10.73;8.27;;;14.70;99.90;;;;;;5034089;28;20565;-79
2023/04/30 07:07:37;;;;;;;10.77;8.40;;;14.90;99.90;;;;;;5051377;28;20205;-80
2023/04/30 07:10:07;;;;;;;8.73;7.25;;;15.20;99.90;;;;;;5054212;28;20268;-80
2023/04/30 07:12:33;;;;;;;8.50;7.70;;;15.20;99.90;;;;;;5053665;28;20301;-79
2023/04/30 07:15:00;;;;;;;8.00;7.20;;;15.40;99.90;;;;;;5035922;28;20207;-79
2023/04/30 07:17:28;;;;;;;9.77;7.30;;;15.60;99.90;;;;;;5034015;28;20198;-80
2023/04/30 07:19:55;;;;;;;7.93;7.03;;;15.60;99.90;;;;;;5033136;28;20217;-80
2023/04/30 07:22:21;;;;;;;8.90;7.32;;;15.50;99.90;;;;;;5033730;28;20199;-81
2023/04/30 07:24:48;;;;;;;7.25;5.97;;;15.40;99.90;;;;;;5033976;28;20649;-80
2023/04/30 07:27:17;;;;;;;7.93;6.57;;;15.30;99.90;;;;;;5033718;28;20237;-80
2023/04/30 07:29:44;;;;;;;9.48;7.43;;;15.40;99.90;;;;;;5035425;28;20317;-80
2023/04/30 07:32:10;;;;;;;7.63;6.72;;;15.50;99.90;;;;;;5054325;28;20234;-79
2023/04/30 07:34:38;;;;;;;8.00;6.93;;;15.20;99.90;;;;;;5054517;28;20198;-81
2023/04/30 07:37:04;;;;;;;8.02;6.43;;;15.20;99.90;;;;;;5054463;28;20285;-81
2023/04/30 07:49:58;;;;;;;9.15;6.40;;;14.70;99.90;;;;;;4858667;29;20205;-81
2023/04/30 07:52:25;;;;;;;6.65;5.18;;;14.50;99.90;;;;;;4979439;28;20315;-80
2023/04/30 07:54:51;;;;;;;7.22;5.60;;;14.40;99.90;;;;;;4991765;28;20216;-80
2023/04/30 07:57:18;;;;;;;8.48;6.22;;;14.30;99.90;;;;;;4988104;28;20235;-80
2023/04/30 07:59:45;;;;;;;5.85;5.07;;;14.10;99.90;;;;;;4990389;28;20624;-80
2023/04/30 08:02:12;;;;;;;6.85;5.63;;;14.10;99.90;;;;;;4988741;28;20565;-80
2023/04/30 08:04:39;;;;;;;7.28;6.07;;;14.10;99.90;;;;;;4983498;28;20207;-80
2023/04/30 08:07:09;;;;;;;6.38;5.28;;;14.10;99.90;;;;;;4991438;28;20211;-78
2023/04/30 08:09:36;;;;;;;6.20;5.10;;;14.00;99.90;;;;;;4991640;28;20211;-80
2023/04/30 08:12:03;;;;;;;5.90;5.07;;;14.00;99.90;;;;;;4992415;28;20319;-81
2023/04/30 08:14:31;;;;;;;7.35;5.00;;;14.00;99.90;;;;;;4992357;28;20640;-78
2023/04/30 08:16:59;;;;;;;5.97;5.22;;;14.00;99.90;;;;;;4991271;28;20215;-80
2023/04/30 08:19:26;;;;;;;8.15;6.38;;;14.10;99.90;;;;;;4991667;28;20239;-80
2023/04/30 08:21:53;;;;;;;7.80;5.45;;;14.20;99.90;;;;;;4991023;28;20294;-78
2023/04/30 08:24:21;;;;;;;7.65;5.07;;;14.30;99.90;;;;;;5022924;28;20199;-80
2023/04/30 08:26:48;;;;;;;5.38;4.82;;;14.60;99.90;;;;;;5033956;28;20554;-78
2023/04/30 08:29:15;;;;;;;5.97;4.65;;;14.90;99.90;;;;;;5032285;28;20198;-79
2023/04/30 08:31:42;;;;;;;5.05;4.40;;;15.10;99.90;;;;;;5032889;28;20208;-79
2023/04/30 08:34:09;;;;;;;4.93;4.35;;;15.60;99.90;;;;;;5029831;28;20225;-80
2023/04/30 08:36:35;;;;;;;7.78;4.75;;;15.80;1.00;;;;;;5013410;28;20469;-80
2023/04/30 08:39:02;;;;;;;6.65;4.97;;;16.10;1.00;;;;;;5013210;28;20213;-79
2023/04/30 08:41:33;;;;;;;4.82;3.95;;;16.40;1.00;;;;;;5013288;28;20230;-80
2023/04/30 08:44:02;;;;;;;4.97;4.00;;;16.70;1.00;;;;;;5012726;28;20596;-80
2023/04/30 08:46:34;;;;;;;4.68;4.18;;;16.80;1.00;;;;;;5013454;28;20207;-80
2023/04/30 08:49:01;;;;;;;3.83;3.53;;;17.10;1.00;;;;;;5012838;28;20302;-80
2023/04/30 08:51:31;;;;;;;6.05;4.45;;;16.90;1.00;;;;;;5012708;28;20199;-77
2023/04/30 08:53:58;;;;;;;5.72;4.13;;;16.80;1.00;;;;;;5026065;28;20269;-79
2023/04/30 08:56:25;;;;;;;5.82;4.63;;;16.80;1.00;;;;;;5033249;28;20206;-80
2023/04/30 08:58:53;;;;;;;4.75;4.15;;;16.90;1.00;;;;;;5050234;28;20301;-78
2023/04/30 09:01:21;;;;;;;5.90;4.78;;;17.00;1.00;;;;;;5041771;28;20284;-79
2023/04/30 09:03:47;;;;;;;4.57;4.10;;;17.30;1.00;;;;;;5051889;28;20220;-79
2023/04/30 09:06:17;;;;;;;5.00;4.35;;;17.50;1.00;;;;;;5045324;28;20234;-77
2023/04/30 09:08:46;;;;;;;6.90;4.45;;;17.70;1.00;;;;;;5041967;28;20211;-78
2023/04/30 09:11:25;;;;;;;4.95;3.92;;;17.60;1.00;;;;;;5043875;28;20218;-79
2023/04/30 09:13:58;;;;;;;4.97;4.20;;;17.70;1.00;;;;;;5043215;28;20300;-77
2023/04/30 09:16:25;;;;;;;3.97;3.67;;;17.60;1.00;;;;;;5043746;28;20234;-78
2023/04/30 09:18:52;;;;;;;4.07;3.47;;;17.80;1.00;;;;;;5055847;28;20206;-77
2023/04/30 09:21:31;;;;;;;4.60;3.78;;;18.00;1.00;;;;;;5046384;28;20194;-78
2023/04/30 09:24:00;;;;;;;4.97;3.53;;;18.00;1.00;;;;;;5041718;28;20213;-78
2023/04/30 09:26:30;;;;;;;3.75;3.45;;;17.90;99.90;;;;;;5045207;28;20324;-77
2023/04/30 09:28:59;;;;;;;4.88;3.70;;;17.30;1.00;;;;;;5053296;28;20273;-77
2023/04/30 09:31:27;;;;;;;5.40;4.00;;;17.30;1.00;;;;;;5053604;28;20209;-78
2023/04/30 09:33:54;;;;;;;4.18;3.03;;;17.50;99.90;;;;;;5042450;28;20223;-79
2023/04/30 09:36:21;;;;;;;5.30;3.45;;;17.90;99.90;;;;;;5069734;28;20192;-79
2023/04/30 09:38:48;;;;;;;7.25;3.53;;;18.10;99.90;;;;;;5041845;28;20656;-77
2023/04/30 09:41:26;;;;;;;4.05;3.60;;;18.20;99.90;;;;;;5031391;28;20198;-78
2023/04/30 09:43:53;;;;;;;3.50;3.20;;;18.20;1.00;;;;;;5046155;28;20202;-77
2023/04/30 09:46:30;;;;;;;5.63;3.35;;;18.50;1.00;;;;;;5050519;28;20636;-77
2023/04/30 09:48:58;;;;;;;4.07;3.15;;;18.70;1.00;;;;;;5051600;28;20252;-78
2023/04/30 09:51:26;;;;;;;3.47;3.17;;;18.60;1.00;;;;;;5052115;28;20819;-79
2023/04/30 09:53:54;;;;;;;4.75;3.85;;;18.60;1.00;;;;;;5034988;28;20241;-80
2023/04/30 09:56:24;;;;;;;5.35;3.60;;;18.50;1.00;;;;;;5039921;28;20651;-79
2023/04/30 09:58:53;;;;;;;3.88;3.13;;;18.60;1.00;;;;;;5041388;28;20230;-79
2023/04/30 10:01:23;;;;;;;3.97;3.35;;;18.60;1.00;;;;;;5039564;28;20290;-80
2023/04/30 10:03:50;;;;;;;3.72;3.38;;;18.90;1.00;;;;;;5044266;28;20194;-81
2023/04/30 10:06:18;;;;;;;4.30;3.53;;;19.10;1.00;;;;;;5031501;28;20209;-80
2023/04/30 10:08:48;;;;;;;4.68;3.70;;;18.70;1.00;;;;;;5033563;28;20206;-80
2023/04/30 10:11:23;;;;;;;3.90;3.50;;;18.80;1.00;;;;;;5051156;28;20599;-79
2023/04/30 10:13:54;;;;;;;3.33;2.90;;;18.80;1.00;;;;;;5050789;28;20225;-81
2023/04/30 10:16:34;;;;;;;6.63;4.30;;;19.20;1.00;;;;;;5040968;28;20198;-79
2023/04/30 10:19:07;;;;;;;5.38;4.10;;;19.10;99.90;;;;;;5031411;28;20198;-78
2023/04/30 10:21:34;;;;;;;5.60;3.60;;;18.60;99.90;;;;;;5030592;28;20595;-79
2023/04/30 10:24:02;;;;;;;4.22;3.35;;;18.60;1.00;;;;;;5030751;28;20191;-78
2023/04/30 10:26:29;;;;;;;4.97;3.35;;;18.80;1.00;;;;;;5048617;28;20308;-79
2023/04/30 10:28:59;;;;;;;5.53;3.30;;;18.90;1.00;;;;;;5044884;28;20282;-78
2023/04/30 10:31:29;;;;;;;3.55;3.15;;;19.10;1.00;;;;;;5031308;28;20618;-77
2023/04/30 10:34:04;;;;;;;3.90;3.03;;;19.10;99.90;;;;;;5031406;28;20235;-78
2023/04/30 10:36:39;;;;;;;3.55;2.72;;;19.20;99.90;;;;;;5030953;28;20258;-77
2023/04/30 10:39:07;;;;;;;4.22;3.30;;;19.60;99.90;;;;;;5031809;28;20210;-79
2023/04/30 10:41:34;;;;;;;2.70;2.28;;;19.90;99.90;;;;;;5042962;28;20202;-77
2023/04/30 10:44:04;;;;;;;7.22;3.75;;;19.70;99.90;;;;;;5042594;28;20281;-79
2023/04/30 10:46:35;;;;;;;3.88;3.47;;;19.70;99.90;;;;;;5033501;28;20537;-80
2023/04/30 10:49:02;;;;;;;5.25;2.92;;;19.20;99.90;;;;;;5055292;28;20198;-79
2023/04/30 10:51:47;;;;;;;3.53;3.22;;;19.20;1.00;;;;;;5054163;28;20521;-80
2023/04/30 10:54:17;;;;;;;5.68;3.47;;;19.50;1.00;;;;;;5054880;28;20233;-81
2023/04/30 10:56:46;;;;;;;3.50;3.00;;;19.60;99.90;;;;;;5039451;28;20206;-81
2023/04/30 10:59:14;;;;;;;3.75;2.90;;;19.50;99.90;;;;;;5035084;28;20230;-81
2023/04/30 11:02:00;;;;;;;5.32;2.65;;;19.50;99.90;;;;;;5034033;28;20219;-79
2023/04/30 11:04:27;;;;;;;4.22;3.13;;;19.50;99.90;;;;;;5033671;28;20217;-79
2023/04/30 11:07:07;;;;;;;5.00;3.67;;;19.60;1.00;;;;;;5034920;28;20596;-79
2023/04/30 11:09:42;;;;;;;3.53;2.55;;;19.40;99.90;;;;;;5043297;28;20514;-81
2023/04/30 11:12:14;;;;;;;4.15;3.40;;;19.10;99.90;;;;;;5048582;28;20307;-80
2023/04/30 11:14:43;;;;;;;4.80;3.08;;;19.40;1.00;;;;;;5034447;28;20215;-80
2023/04/30 11:17:13;;;;;;;4.40;3.13;;;19.40;1.00;;;;;;5034226;28;20199;-78
2023/04/30 11:19:47;;;;;;;4.30;2.75;;;19.70;1.00;;;;;;5034354;28;20206;-78
2023/04/30 11:22:19;;;;;;;5.22;3.17;;;20.00;99.90;;;;;;5034063;28;20209;-79
2023/04/30 11:25:04;;;;;;;3.95;3.20;;;19.90;99.90;;;;;;5033523;28;20198;-80
2023/04/30 11:27:33;;;;;;;4.22;3.13;;;20.00;99.90;;;;;;5034119;28;20191;-81
2023/04/30 11:30:01;;;;;;;6.40;3.33;;;20.00;99.90;;;;;;5033322;28;20225;-80
2023/04/30 11:32:35;;;;;;;4.00;2.97;;;20.10;99.90;;;;;;5046091;28;20323;-80
2023/04/30 11:35:03;;;;;;;4.40;3.20;;;19.90;99.90;;;;;;5047196;28;20218;-80
2023/04/30 11:37:34;;;;;;;3.80;2.88;;;20.00;99.90;;;;;;5041520;28;20194;-78
2023/04/30 11:40:02;;;;;;;5.20;3.53;;;20.20;99.90;;;;;;5043577;28;20256;-80
2023/04/30 11:42:33;;;;;;;4.70;2.97;;;20.40;64.80;;;;;;5036066;28;20218;-79
2023/04/30 11:45:05;;;;;;;3.63;3.13;;;20.40;99.90;;;;;;5032934;28;20199;-79
2023/04/30 11:47:41;;;;;;;4.53;2.90;;;20.40;99.90;;;;;;5032668;28;20201;-79
2023/04/30 11:50:09;;;;;;;6.03;3.50;;;20.40;99.90;;;;;;5032921;28;20232;-78
2023/04/30 11:52:36;;;;;;;5.00;3.15;;;20.60;93.10;;;;;;5033561;28;20210;-78
2023/04/30 11:55:08;;;;;;;3.92;2.80;;;20.60;99.90;;;;;;5033026;28;20296;-79
2023/04/30 11:57:40;;;;;;;6.10;3.35;;;20.80;49.50;;;;;;5033166;28;20210;-78
2023/04/30 12:00:12;;;;;;;2.83;2.58;;;20.60;1.00;;;;;;5032439;28;20232;-78
2023/04/30 12:02:41;;;;;;;3.85;2.65;;;20.80;1.00;;;;;;5033244;28;20219;-78
2023/04/30 12:05:14;;;;;;;3.38;2.45;;;20.50;1.00;;;;;;5031669;28;20482;-78
2023/04/30 12:07:46;;;;;;;4.35;3.05;;;20.60;36.90;;;;;;5031372;28;20211;-79
2023/04/30 12:10:13;;;;;;;3.38;2.47;;;20.60;1.00;;;;;;5031352;28;20191;-78
2023/04/30 12:12:42;;;;;;;4.05;2.42;;;20.40;1.00;;;;;;5031108;28;20222;-80
2023/04/30 12:15:14;;;;;;;4.32;2.90;;;20.60;1.00;;;;;;5031007;28;20310;-78
2023/04/30 12:17:43;;;;;;;3.55;2.63;;;20.60;1.00;;;;;;5031509;28;20659;-80
2023/04/30 12:20:11;;;;;;;4.28;2.90;;;20.70;1.00;;;;;;5033065;28;20209;-80
2023/04/30 12:22:39;;;;;;;4.60;2.85;;;20.80;1.00;;;;;;5031825;28;20227;-79
2023/04/30 12:25:08;;;;;;;2.70;1.92;;;20.60;1.00;;;;;;5052307;28;20340;-80
2023/04/30 12:27:36;;;;;;;3.05;2.03;;;20.70;1.00;;;;;;5052747;28;20220;-81
2023/04/30 12:30:08;;;;;;;4.53;2.42;;;20.90;1.00;;;;;;5041742;28;20203;-80
2023/04/30 12:32:39;;;;;;;4.40;2.28;;;20.90;1.00;;;;;;5031618;28;20191;-79
2023/04/30 12:35:09;;;;;;;3.85;2.75;;;20.80;1.00;;;;;;5051805;28;20217;-80
2023/04/30 12:37:36;;;;;;;2.83;1.83;;;20.70;1.00;;;;;;5043374;28;20213;-78
2023/04/30 12:40:03;;;;;;;2.65;2.13;;;20.60;1.00;;;;;;5032279;28;20206;-78
2023/04/30 12:42:34;;;;;;;2.40;2.20;;;20.50;1.00;;;;;;5032098;28;20209;-79
2023/04/30 12:45:05;;;;;;;3.15;2.10;;;20.60;1.00;;;;;;5042913;28;20229;-79
2023/04/30 12:47:32;;;;;;;4.38;1.90;;;20.70;1.00;;;;;;5052486;28;20221;-79
2023/04/30 12:49:59;;;;;;;3.58;2.33;;;20.80;1.00;;;;;;5051134;28;20202;-79
2023/04/30 12:52:27;;;;;;;3.42;1.98;;;20.80;1.00;;;;;;5052095;28;20236;-80
2023/04/30 12:54:54;;;;;;;3.00;2.10;;;20.90;1.00;;;;;;5051474;28;20229;-79
2023/04/30 12:57:21;;;;;;;3.88;2.60;;;20.90;1.00;;;;;;5051781;28;20202;-79
2023/04/30 12:59:59;;;;;;;4.00;2.45;;;20.90;1.00;;;;;;5047173;28;20205;-79
2023/04/30 13:02:30;;;;;;;3.05;2.00;;;20.00;1.00;;;;;;5031872;28;20516;-79
2023/04/30 13:04:58;;;;;;;4.00;2.10;;;19.90;1.00;;;;;;5043270;28;20275;-79
2023/04/30 13:07:25;;;;;;;5.05;2.65;;;20.10;1.00;;;;;;5051836;28;20329;-80